createdAt,value
2018-08-23T00:01:30.716Z,17.63
2018-08-23T00:04:03.691Z,17.56
2018-08-23T00:06:32.048Z,17.57
2018-08-23T00:09:00.556Z,17.56
2018-08-23T00:11:30.532Z,17.43
2018-08-23T00:13:58.939Z,17.46
2018-08-23T00:16:33.103Z,17.42
2018-08-23T00:19:02.968Z,17.43
2018-08-23T00:21:31.340Z,17.48
2018-08-23T00:24:10.568Z,17.62
2018-08-23T00:26:43.352Z,17.72
2018-08-23T00:29:45.661Z,17.86
2018-08-23T00:32:14.364Z,17.79
2018-08-23T00:34:42.723Z,17.63
2018-08-23T00:37:12.875Z,17.50
2018-08-23T00:39:41.228Z,17.29
2018-08-23T00:42:12.643Z,17.23
2018-08-23T00:44:55.080Z,17.13
2018-08-23T00:47:27.028Z,17.13
2018-08-23T00:49:55.415Z,17.12
2018-08-23T00:52:39.668Z,17.05
2018-08-23T00:55:30.475Z,16.96
2018-08-23T00:57:58.834Z,16.78
2018-08-23T01:00:28.259Z,16.78
2018-08-23T01:03:03.843Z,16.81
2018-08-23T01:05:35.142Z,16.82
2018-08-23T01:08:03.968Z,16.89
2018-08-23T01:10:32.340Z,16.72
2018-08-23T01:13:01.812Z,16.62
2018-08-23T01:15:31.134Z,16.61
2018-08-23T01:18:16.907Z,16.67
2018-08-23T01:20:46.302Z,16.61
2018-08-23T01:23:14.630Z,16.57
2018-08-23T01:25:44.083Z,16.56
2018-08-23T01:28:12.457Z,16.45
2018-08-23T01:30:41.224Z,16.44
2018-08-23T01:33:14.626Z,16.60
2018-08-23T01:35:44.140Z,16.68
2018-08-23T01:38:13.020Z,16.60
2018-08-23T01:40:41.656Z,16.46
2018-08-23T01:43:09.994Z,16.40
2018-08-23T01:45:38.348Z,16.26
2018-08-23T01:48:07.900Z,16.25
2018-08-23T01:50:36.333Z,16.20
2018-08-23T01:53:04.968Z,16.23
2018-08-23T01:55:33.348Z,16.19
2018-08-23T01:58:01.710Z,16.20
2018-08-23T02:00:31.373Z,16.27
2018-08-23T02:03:00.856Z,16.30
2018-08-23T02:05:29.207Z,16.11
2018-08-23T02:07:57.612Z,16.12
2018-08-23T02:10:25.944Z,16.01
2018-08-23T02:12:55.441Z,16.05
2018-08-23T02:15:23.920Z,16.10
2018-08-23T02:17:54.618Z,16.12
2018-08-23T02:20:24.165Z,16.20
2018-08-23T02:22:53.016Z,16.18
2018-08-23T02:25:21.440Z,16.09
2018-08-23T02:28:09.148Z,15.95
2018-08-23T02:30:47.100Z,15.85
2018-08-23T02:33:15.906Z,15.68
2018-08-23T02:36:22.617Z,15.55
2018-08-23T02:39:02.808Z,15.58
2018-08-23T02:41:31.444Z,15.60
2018-08-23T02:44:00.011Z,15.46
2018-08-23T02:46:28.468Z,15.61
2018-08-23T02:48:56.835Z,15.60
2018-08-23T02:51:43.464Z,15.48
2018-08-23T02:54:14.840Z,15.38
2018-08-23T02:57:01.084Z,15.53
2018-08-23T02:59:30.203Z,15.61
2018-08-23T03:02:14.615Z,15.72
2018-08-23T03:04:42.969Z,15.60
2018-08-23T03:07:11.326Z,15.53
2018-08-23T03:09:40.572Z,15.44
2018-08-23T03:12:24.285Z,15.39
2018-08-23T03:14:52.636Z,15.50
2018-08-23T03:17:26.121Z,15.46
2018-08-23T03:19:59.892Z,15.32
2018-08-23T03:22:30.423Z,15.23
2018-08-23T03:24:59.956Z,15.14
2018-08-23T03:27:28.756Z,15.13
2018-08-23T03:29:57.130Z,15.04
2018-08-23T03:32:25.643Z,15.02
2018-08-23T03:34:54.472Z,15.11
2018-08-23T03:37:22.805Z,15.09
2018-08-23T03:39:51.168Z,15.29
2018-08-23T03:42:19.640Z,15.11
2018-08-23T03:44:52.639Z,14.97
2018-08-23T03:47:21.061Z,14.83
2018-08-23T03:49:49.604Z,14.89
2018-08-23T03:52:20.314Z,14.92
2018-08-23T03:55:00.640Z,14.86
2018-08-23T03:57:34.188Z,14.91
2018-08-23T04:00:02.697Z,14.91
2018-08-23T04:02:31.201Z,14.84
2018-08-23T04:05:07.536Z,14.75
2018-08-23T04:07:36.621Z,14.73
2018-08-23T04:10:05.140Z,14.90
2018-08-23T04:12:33.686Z,14.80
2018-08-23T04:15:15.315Z,14.82
2018-08-23T04:17:44.509Z,14.80
2018-08-23T04:20:12.907Z,14.78
2018-08-23T04:22:41.413Z,14.77
2018-08-23T04:25:09.752Z,14.90
2018-08-23T04:27:38.084Z,15.11
2018-08-23T04:30:07.376Z,15.09
2018-08-23T04:32:42.808Z,15.08
2018-08-23T04:35:15.521Z,14.85
2018-08-23T04:37:43.860Z,14.80
2018-08-23T04:40:13.212Z,14.90
2018-08-23T04:42:41.576Z,14.78
2018-08-23T04:45:15.164Z,14.87
2018-08-23T04:47:50.480Z,14.93
2018-08-23T04:50:18.833Z,14.93
2018-08-23T04:52:47.573Z,15.10
2018-08-23T04:55:15.945Z,14.98
2018-08-23T04:57:44.276Z,15.13
2018-08-23T05:00:12.660Z,15.20
2018-08-23T05:02:41.144Z,15.40
2018-08-23T05:05:10.416Z,15.52
2018-08-23T05:07:38.760Z,15.52
2018-08-23T05:10:07.376Z,15.62
2018-08-23T05:12:35.732Z,15.69
2018-08-23T05:15:04.119Z,15.82
2018-08-23T05:17:32.584Z,16.00
2018-08-23T05:20:01.330Z,15.97
2018-08-23T05:22:29.656Z,16.07
2018-08-23T05:25:03.068Z,16.17
2018-08-23T05:27:31.467Z,16.19
2018-08-23T05:29:59.833Z,16.32
2018-08-23T05:32:28.193Z,16.44
2018-08-23T05:34:56.616Z,16.43
2018-08-23T05:37:24.948Z,16.68
2018-08-23T05:39:53.441Z,16.81
2018-08-23T05:42:34.260Z,17.05
2018-08-23T05:45:02.637Z,17.18
2018-08-23T05:47:31.075Z,17.31
2018-08-23T05:49:59.423Z,17.27
2018-08-23T05:52:27.768Z,17.60
2018-08-23T05:54:56.135Z,17.94
2018-08-23T05:57:24.468Z,18.04
2018-08-23T05:59:55.326Z,18.14
2018-08-23T06:02:23.708Z,18.33
2018-08-23T06:04:52.071Z,18.40
2018-08-23T06:07:20.413Z,18.67
2018-08-23T06:09:48.783Z,18.93
2018-08-23T06:12:17.144Z,19.25
2018-08-23T06:14:45.492Z,19.37
2018-08-23T06:17:13.880Z,19.47
2018-08-23T06:19:42.221Z,19.97
2018-08-23T06:22:10.572Z,20.43
2018-08-23T06:24:38.899Z,21.60
2018-08-23T06:27:07.273Z,22.59
2018-08-23T06:29:35.836Z,22.97
2018-08-23T06:32:07.508Z,23.74
2018-08-23T06:34:38.737Z,24.82
2018-08-23T06:37:07.080Z,26.23
2018-08-23T06:39:35.416Z,27.77
2018-08-23T06:42:04.268Z,27.22
2018-08-23T06:44:34.412Z,27.76
2018-08-23T06:47:02.813Z,28.58
2018-08-23T06:49:31.125Z,28.48
2018-08-23T06:52:09.516Z,29.71
2018-08-23T06:54:37.868Z,29.96
2018-08-23T06:57:06.259Z,30.10
2018-08-23T06:59:34.644Z,30.55
2018-08-23T07:02:03.016Z,30.71
2018-08-23T07:04:31.375Z,30.71
2018-08-23T07:06:59.762Z,30.84
2018-08-23T07:09:28.111Z,30.49
2018-08-23T07:12:05.376Z,30.47
2018-08-23T07:14:35.331Z,31.15
2018-08-23T07:17:25.571Z,31.35
2018-08-23T07:19:53.921Z,32.06
2018-08-23T07:22:26.385Z,31.79
2018-08-23T07:24:56.302Z,28.86
2018-08-23T07:27:26.485Z,29.36
2018-08-23T07:29:56.516Z,30.68
2018-08-23T07:32:25.969Z,30.53
2018-08-23T07:35:02.054Z,30.59
2018-08-23T07:37:31.340Z,31.00
2018-08-23T07:40:05.932Z,30.53
2018-08-23T07:42:35.164Z,30.61
2018-08-23T07:45:03.728Z,31.32
2018-08-23T07:47:32.740Z,32.38
2018-08-23T07:50:02.179Z,32.86
2018-08-23T07:52:31.785Z,32.31
2018-08-23T07:55:00.540Z,31.77
2018-08-23T07:57:31.602Z,33.34
2018-08-23T08:00:01.205Z,34.69
2018-08-23T08:02:29.969Z,32.69
2018-08-23T08:04:58.792Z,33.59
2018-08-23T08:07:31.337Z,33.65
2018-08-23T08:10:00.908Z,34.95
2018-08-23T08:12:37.268Z,34.94
2018-08-23T08:15:10.790Z,36.39
2018-08-23T08:17:39.113Z,36.58
2018-08-23T08:20:09.377Z,36.83
2018-08-23T08:22:37.752Z,35.46
2018-08-23T08:25:16.568Z,35.65
2018-08-23T08:27:44.981Z,34.90
2018-08-23T08:30:15.227Z,35.51
2018-08-23T08:32:44.032Z,35.72
2018-08-23T08:35:16.145Z,35.38
2018-08-23T08:37:45.096Z,35.24
2018-08-23T08:40:14.140Z,36.35
2018-08-23T08:42:42.739Z,37.28
2018-08-23T08:45:12.177Z,38.15
2018-08-23T08:47:41.749Z,36.37
2018-08-23T08:50:10.099Z,34.05
2018-08-23T08:52:38.488Z,33.71
2018-08-23T08:55:08.960Z,34.99
2018-08-23T08:57:41.144Z,35.02
2018-08-23T09:00:09.880Z,34.24
2018-08-23T09:02:38.248Z,34.20
2018-08-23T09:05:06.932Z,30.92
2018-08-23T09:07:36.377Z,33.51
2018-08-23T09:10:05.629Z,35.92
2018-08-23T09:12:34.196Z,36.13
2018-08-23T09:15:02.628Z,36.83
2018-08-23T09:17:42.312Z,38.13
2018-08-23T09:20:12.473Z,38.44
2018-08-23T09:22:46.020Z,39.43
2018-08-23T09:25:21.912Z,40.19
2018-08-23T09:27:50.848Z,37.80
2018-08-23T09:30:24.548Z,38.76
2018-08-23T09:32:52.914Z,38.27
2018-08-23T09:35:23.756Z,39.06
2018-08-23T09:37:56.612Z,39.92
2018-08-23T09:40:26.337Z,36.23
2018-08-23T09:42:54.759Z,37.41
2018-08-23T09:45:23.072Z,37.43
2018-08-23T09:47:51.463Z,38.39
2018-08-23T09:50:19.843Z,38.90
2018-08-23T09:52:49.589Z,39.20
2018-08-23T09:55:19.096Z,40.35
2018-08-23T09:57:47.869Z,38.76
2018-08-23T10:02:27.594Z,39.47
2018-08-23T10:05:01.182Z,39.99
2018-08-23T10:07:34.701Z,40.49
2018-08-23T10:10:08.328Z,38.75
2018-08-23T10:12:41.952Z,36.88
2018-08-23T10:15:15.545Z,37.19
2018-08-23T10:17:56.040Z,36.88
2018-08-23T10:20:30.328Z,36.68
2018-08-23T10:23:03.996Z,36.84
2018-08-23T10:25:38.656Z,39.17
2018-08-23T10:28:08.385Z,38.97
2018-08-23T10:30:36.755Z,38.04
2018-08-23T10:33:05.164Z,35.49
2018-08-23T10:35:33.943Z,32.96
2018-08-23T10:38:02.347Z,34.02
2018-08-23T10:40:30.692Z,35.17
2018-08-23T10:42:59.744Z,35.57
2018-08-23T10:45:28.076Z,35.01
2018-08-23T10:48:01.716Z,37.02
2018-08-23T10:50:30.123Z,37.73
2018-08-23T10:52:58.413Z,36.69
2018-08-23T10:55:26.764Z,37.36
2018-08-23T10:57:55.996Z,41.55
2018-08-23T11:00:24.385Z,39.78
2018-08-23T11:02:52.739Z,37.50
2018-08-23T11:05:21.112Z,38.54
2018-08-23T11:07:54.655Z,41.51
2018-08-23T11:10:28.344Z,39.22
2018-08-23T11:13:01.889Z,40.27
2018-08-23T11:15:30.261Z,42.99
2018-08-23T11:18:03.797Z,41.22
2018-08-23T11:20:38.207Z,39.44
2018-08-23T11:23:07.279Z,40.66
2018-08-23T11:25:35.567Z,42.56
2018-08-23T11:28:09.132Z,39.76
2018-08-23T11:30:38.541Z,41.50
2018-08-23T11:33:09.648Z,40.62
2018-08-23T11:35:38.456Z,39.37
2018-08-23T11:38:07.879Z,38.09
2018-08-23T11:40:36.263Z,37.20
2018-08-23T11:43:04.685Z,37.45
2018-08-23T11:45:33.205Z,40.10
2018-08-23T11:48:01.544Z,40.10
2018-08-23T11:50:29.941Z,39.13
2018-08-23T11:52:58.306Z,40.37
2018-08-23T11:55:26.724Z,40.14
2018-08-23T11:57:55.143Z,39.88
2018-08-23T12:00:23.476Z,39.69
2018-08-23T12:02:52.212Z,38.54
2018-08-23T12:05:20.580Z,39.43
2018-08-23T12:07:53.100Z,39.57
2018-08-23T12:10:22.732Z,39.77
2018-08-23T12:12:52.416Z,38.76
2018-08-23T12:15:28.650Z,39.43
2018-08-23T12:17:57.320Z,39.07
2018-08-23T12:20:25.872Z,39.32
2018-08-23T12:22:54.220Z,40.71
2018-08-23T12:25:22.603Z,42.97
2018-08-23T12:28:12.728Z,41.06
2018-08-23T12:30:42.012Z,39.55
2018-08-23T12:33:10.328Z,38.87
2018-08-23T12:35:38.692Z,39.80
2018-08-23T12:38:21.056Z,39.80
2018-08-23T12:40:54.770Z,39.23
2018-08-23T12:43:56.685Z,38.99
2018-08-23T12:46:25.043Z,36.91
2018-08-23T12:48:57.796Z,37.76
2018-08-23T12:51:26.177Z,36.49
2018-08-23T12:53:54.523Z,37.79
2018-08-23T12:56:22.880Z,38.49
2018-08-23T13:00:15.610Z,38.32
2018-08-23T13:02:44.099Z,38.62
2018-08-23T13:05:12.414Z,38.93
2018-08-23T13:07:40.759Z,36.79
2018-08-23T13:10:09.458Z,35.15
2018-08-23T13:12:37.820Z,34.21
2018-08-23T13:15:06.209Z,37.41
2018-08-23T13:17:34.588Z,39.55
2018-08-23T13:20:02.937Z,40.12
2018-08-23T13:22:36.648Z,40.10
2018-08-23T13:25:05.020Z,39.50
2018-08-23T13:27:33.459Z,39.95
2018-08-23T13:30:02.333Z,41.26
2018-08-23T13:32:30.894Z,40.10
2018-08-23T13:34:59.560Z,40.24
2018-08-23T13:37:27.972Z,39.68
2018-08-23T13:39:56.472Z,38.73
2018-08-23T13:42:24.849Z,36.24
2018-08-23T13:44:53.206Z,36.92
2018-08-23T13:47:21.616Z,33.49
2018-08-23T13:49:50.139Z,33.24
2018-08-23T13:52:18.497Z,32.62
2018-08-23T13:54:47.854Z,33.63
2018-08-23T13:57:16.256Z,34.96
2018-08-23T13:59:44.621Z,37.28
2018-08-23T14:02:13.396Z,37.53
2018-08-23T14:04:41.697Z,36.64
2018-08-23T14:07:10.080Z,36.88
2018-08-23T14:09:38.447Z,35.61
2018-08-23T14:12:06.836Z,34.81
2018-08-23T14:14:35.678Z,33.61
2018-08-23T14:17:04.489Z,33.05
2018-08-23T14:19:32.831Z,32.95
2018-08-23T14:22:01.189Z,33.72
2018-08-23T14:24:29.508Z,35.20
2018-08-23T14:26:57.884Z,34.58
2018-08-23T14:29:26.331Z,33.70
2018-08-23T14:31:55.012Z,34.25
2018-08-23T14:34:23.819Z,34.65
2018-08-23T14:36:52.296Z,36.46
2018-08-23T14:39:20.849Z,38.35
2018-08-23T14:41:49.245Z,36.97
2018-08-23T14:44:17.668Z,38.44
2018-08-23T14:46:51.137Z,38.64
2018-08-23T14:49:24.784Z,35.52
2018-08-23T14:51:53.137Z,33.51
2018-08-23T14:54:26.525Z,33.05
2018-08-23T14:57:01.158Z,34.51
2018-08-23T14:59:29.517Z,35.92
2018-08-23T15:01:57.868Z,37.67
2018-08-23T15:04:26.208Z,37.04
2018-08-23T15:06:54.592Z,37.05
2018-08-23T15:09:27.295Z,37.32
2018-08-23T15:11:55.655Z,35.72
2018-08-23T15:14:23.992Z,36.51
2018-08-23T15:16:52.401Z,35.58
2018-08-23T15:19:20.891Z,34.12
2018-08-23T15:21:49.267Z,33.82
2018-08-23T15:24:18.084Z,32.94
2018-08-23T15:26:46.744Z,33.00
2018-08-23T15:29:15.517Z,32.54
2018-08-23T15:31:45.244Z,32.29
2018-08-23T15:34:14.763Z,32.34
2018-08-23T15:36:43.192Z,31.99
2018-08-23T15:39:13.985Z,32.13
2018-08-23T15:41:44.775Z,32.07
2018-08-23T15:44:14.896Z,32.90
2018-08-23T15:46:44.792Z,32.56
2018-08-23T15:49:13.224Z,33.14
2018-08-23T15:51:42.164Z,32.83
2018-08-23T15:54:10.696Z,32.75
2018-08-23T15:56:39.901Z,32.75
2018-08-23T15:59:08.280Z,32.78
2018-08-23T16:01:36.605Z,33.09
2018-08-23T16:04:04.968Z,33.11
2018-08-23T16:06:33.308Z,33.02
2018-08-23T16:09:02.084Z,32.46
2018-08-23T16:11:30.420Z,32.58
2018-08-23T16:13:58.845Z,32.55
2018-08-23T16:16:33.997Z,32.11
2018-08-23T16:19:07.692Z,31.94
2018-08-23T16:21:37.420Z,32.05
2018-08-23T16:24:05.897Z,31.89
2018-08-23T16:26:42.084Z,31.40
2018-08-23T16:29:11.379Z,31.46
2018-08-23T16:31:41.339Z,31.05
2018-08-23T16:34:09.728Z,30.88
2018-08-23T16:36:38.772Z,30.96
2018-08-23T16:39:07.864Z,30.63
2018-08-23T16:41:36.188Z,31.23
2018-08-23T16:44:04.616Z,31.09
2018-08-23T16:46:32.992Z,31.37
2018-08-23T16:49:01.776Z,31.12
2018-08-23T16:51:30.278Z,30.73
2018-08-23T16:53:58.703Z,30.70
2018-08-23T16:56:27.040Z,30.86
2018-08-23T16:58:55.452Z,31.04
2018-08-23T17:01:23.841Z,30.90
2018-08-23T17:03:54.752Z,31.01
2018-08-23T17:06:24.525Z,30.76
2018-08-23T17:08:53.029Z,30.62
2018-08-23T17:11:21.412Z,30.34
2018-08-23T17:13:49.845Z,30.16
2018-08-23T17:16:23.368Z,30.07
2018-08-23T17:18:52.496Z,30.00
2018-08-23T17:21:23.945Z,29.91
2018-08-23T17:23:52.420Z,29.75
2018-08-23T17:26:21.052Z,29.75
2018-08-23T17:28:49.432Z,29.44
2018-08-23T17:31:17.777Z,29.26
2018-08-23T17:33:46.229Z,29.42
2018-08-23T17:36:14.648Z,29.32
2018-08-23T17:38:43.008Z,29.43
2018-08-23T17:41:11.339Z,29.34
2018-08-23T17:43:39.734Z,29.12
2018-08-23T17:46:08.090Z,29.23
2018-08-23T17:48:37.404Z,29.04
2018-08-23T17:51:05.744Z,29.13
2018-08-23T17:53:36.029Z,29.06
2018-08-23T17:56:04.476Z,29.19
2018-08-23T17:58:32.901Z,28.92
2018-08-23T18:01:01.240Z,28.67
2018-08-23T18:03:34.363Z,28.54
2018-08-23T18:06:05.420Z,28.52
2018-08-23T18:08:35.532Z,28.61
2018-08-23T18:11:05.506Z,28.64
2018-08-23T18:13:34.521Z,28.30
2018-08-23T18:16:08.505Z,28.24
2018-08-23T18:18:37.773Z,27.81
2018-08-23T18:21:06.334Z,26.82
2018-08-23T18:23:35.469Z,26.29
2018-08-23T18:26:04.516Z,26.20
2018-08-23T18:28:33.563Z,26.06
2018-08-23T18:31:02.644Z,25.68
2018-08-23T18:33:32.542Z,25.55
2018-08-23T18:36:05.216Z,25.04
2018-08-23T18:38:34.931Z,24.66
2018-08-23T18:41:04.260Z,24.49
2018-08-23T18:43:36.500Z,24.26
2018-08-23T18:46:08.842Z,24.09
2018-08-23T18:48:42.774Z,23.95
2018-08-23T18:51:12.870Z,23.75
2018-08-23T18:53:42.411Z,23.80
2018-08-23T18:56:12.298Z,23.89
2018-08-23T18:58:43.142Z,23.87
2018-08-23T19:01:12.619Z,23.84
2018-08-23T19:03:43.173Z,23.99
2018-08-23T19:06:17.169Z,23.92
2018-08-23T19:08:47.938Z,24.07
2018-08-23T19:11:17.431Z,23.90
2018-08-23T19:13:46.834Z,23.93
2018-08-23T19:16:21.051Z,23.91
2018-08-23T19:18:51.981Z,23.63
2018-08-23T19:21:21.448Z,23.40
2018-08-23T19:23:51.041Z,23.35
2018-08-23T19:26:21.077Z,23.25
2018-08-23T19:28:50.505Z,23.15
2018-08-23T19:31:20.487Z,23.08
2018-08-23T19:33:50.877Z,23.18
2018-08-23T19:36:20.728Z,23.08
2018-08-23T19:38:52.071Z,23.12
2018-08-23T19:41:21.539Z,23.24
2018-08-23T19:43:51.103Z,23.13
2018-08-23T19:46:24.673Z,23.08
2018-08-23T19:50:01.981Z,23.14
2018-08-23T19:52:30.296Z,22.87
2018-08-23T19:54:58.741Z,22.81
2018-08-23T19:57:28.661Z,22.84
2018-08-23T19:59:57.442Z,22.88
2018-08-23T20:02:26.164Z,22.86
2018-08-23T20:04:55.772Z,23.05
2018-08-23T20:08:50.813Z,22.95
2018-08-23T20:11:19.277Z,22.96
2018-08-23T20:13:47.625Z,22.93
2018-08-23T20:16:16.032Z,23.02
2018-08-23T20:18:44.662Z,22.93
2018-08-23T20:21:13.046Z,22.91
2018-08-23T20:23:41.464Z,22.95
2018-08-23T20:26:09.833Z,22.86
2018-08-23T20:28:38.176Z,22.83
2018-08-23T20:31:07.653Z,22.84
2018-08-23T20:33:36.019Z,22.76
2018-08-23T20:36:05.042Z,22.71
2018-08-23T20:38:33.606Z,22.60
2018-08-23T20:41:02.012Z,22.53
2018-08-23T20:43:30.359Z,22.50
2018-08-23T20:45:58.748Z,22.62
2018-08-23T20:48:27.157Z,22.50
2018-08-23T20:50:55.504Z,22.55
2018-08-23T20:53:23.877Z,22.55
2018-08-23T20:55:52.288Z,22.43
2018-08-23T20:58:21.093Z,22.41
2018-08-23T21:00:49.468Z,22.17
2018-08-23T21:03:18.036Z,21.87
2018-08-23T21:05:46.457Z,21.61
2018-08-23T21:08:16.747Z,21.45
2018-08-23T21:10:45.541Z,21.29
2018-08-23T21:13:13.866Z,21.12
2018-08-23T21:15:44.555Z,21.10
2018-08-23T21:18:12.920Z,21.10
2018-08-23T21:20:42.414Z,21.20
2018-08-23T21:23:11.824Z,21.22
2018-08-23T21:25:41.008Z,21.12
2018-08-23T21:28:09.976Z,21.13
2018-08-23T21:30:38.979Z,21.23
2018-08-23T21:33:09.351Z,21.36
2018-08-23T21:35:38.369Z,21.32
2018-08-23T21:38:07.359Z,21.34
2018-08-23T21:40:37.649Z,21.25
2018-08-23T21:43:07.208Z,21.19
2018-08-23T21:45:36.311Z,21.10
2018-08-23T21:48:05.304Z,21.08
2018-08-23T21:50:34.339Z,20.88
2018-08-23T21:53:03.352Z,20.76
2018-08-23T21:55:38.329Z,20.71
2018-08-23T21:58:09.507Z,20.77
2018-08-23T22:00:44.153Z,20.61
2018-08-23T22:03:14.571Z,20.49
2018-08-23T22:05:43.818Z,20.43
2018-08-23T22:08:14.734Z,20.10
2018-08-23T22:10:46.907Z,19.95
2018-08-23T22:13:16.375Z,19.99
2018-08-23T22:15:50.286Z,19.71
2018-08-23T22:18:20.147Z,19.64
2018-08-23T22:20:49.548Z,19.59
2018-08-23T22:23:19.503Z,19.63
2018-08-23T22:25:50.025Z,19.74
2018-08-23T22:28:20.277Z,19.71
2018-08-23T22:30:50.007Z,19.66
2018-08-23T22:33:23.108Z,19.81
2018-08-23T22:35:53.253Z,19.81
2018-08-23T22:38:22.715Z,19.85
2018-08-23T22:40:52.389Z,19.91
2018-08-23T22:43:22.305Z,19.96
2018-08-23T22:45:51.782Z,19.99
2018-08-23T22:48:21.328Z,20.18
2018-08-23T22:50:50.828Z,20.30
2018-08-23T22:53:20.250Z,20.26
2018-08-23T22:55:49.946Z,20.28
2018-08-23T22:58:20.037Z,20.35
2018-08-23T23:00:49.980Z,20.42
2018-08-23T23:03:24.409Z,20.68
2018-08-23T23:05:58.034Z,20.30
2018-08-23T23:08:28.185Z,20.34
2018-08-23T23:10:56.652Z,20.30
2018-08-23T23:13:24.983Z,20.47
2018-08-23T23:15:54.139Z,20.47
2018-08-23T23:18:22.488Z,20.56
2018-08-23T23:20:50.848Z,20.64
2018-08-23T23:23:19.211Z,20.85
2018-08-23T23:25:47.540Z,20.71
2018-08-23T23:28:15.949Z,20.64
2018-08-23T23:30:44.317Z,20.64
2018-08-23T23:33:12.732Z,20.63
2018-08-23T23:35:41.176Z,20.62
2018-08-23T23:38:09.695Z,20.67
2018-08-23T23:40:38.075Z,20.59
2018-08-23T23:43:06.477Z,20.56
2018-08-23T23:45:34.892Z,20.47
2018-08-23T23:48:03.270Z,20.59
2018-08-23T23:50:31.604Z,20.46
2018-08-23T23:52:59.936Z,20.49
2018-08-23T23:55:28.268Z,20.19
2018-08-23T23:57:56.772Z,20.16
